createdAt,value
2018-04-01T00:00:22.309Z,24.20
2018-04-01T00:02:50.540Z,24.20
2018-04-01T00:05:19.561Z,24.20
2018-04-01T00:07:48.488Z,24.20
2018-04-01T00:12:55.754Z,24.20
2018-04-01T00:15:24.311Z,24.20
2018-04-01T00:17:53.724Z,24.10
2018-04-01T00:20:23.668Z,24.10
2018-04-01T00:22:52.772Z,24.10
2018-04-01T00:25:21.432Z,24.10
2018-04-01T00:27:49.711Z,24.10
2018-04-01T00:30:17.967Z,24.10
2018-04-01T00:32:47.068Z,24.00
2018-04-01T00:35:19.270Z,24.00
2018-04-01T00:37:47.516Z,24.00
2018-04-01T00:40:16.534Z,24.00
2018-04-01T00:42:44.799Z,23.90
2018-04-01T00:45:13.412Z,23.90
2018-04-01T00:47:41.714Z,23.90
2018-04-01T00:50:09.983Z,23.90
2018-04-01T00:52:38.231Z,23.90
2018-04-01T00:55:06.879Z,23.90
2018-04-01T00:57:36.413Z,23.80
2018-04-01T01:00:04.860Z,23.80
2018-04-01T01:02:33.188Z,23.80
2018-04-01T01:05:01.513Z,23.70
2018-04-01T01:07:30.636Z,23.70
2018-04-01T01:09:58.877Z,23.70
2018-04-01T01:12:27.190Z,23.70
2018-04-01T01:14:55.432Z,23.70
2018-04-01T01:17:24.851Z,23.70
2018-04-01T01:19:54.636Z,23.70
2018-04-01T01:22:22.886Z,23.70
2018-04-01T01:24:51.150Z,23.70
2018-04-01T01:27:19.415Z,23.70
2018-04-01T01:29:47.691Z,23.60
2018-04-01T01:32:15.960Z,23.60
2018-04-01T01:34:44.227Z,23.60
2018-04-01T01:37:12.532Z,23.60
2018-04-01T01:39:40.775Z,23.60
2018-04-01T01:42:09.831Z,23.60
2018-04-01T01:44:38.087Z,23.60
2018-04-01T01:47:06.655Z,23.60
2018-04-01T01:49:34.911Z,23.60
2018-04-01T01:52:03.246Z,23.60
2018-04-01T01:54:31.792Z,23.60
2018-04-01T01:57:00.240Z,23.60
2018-04-01T01:59:29.365Z,23.60
2018-04-01T02:01:58.211Z,23.50
2018-04-01T02:04:27.281Z,23.60
2018-04-01T02:06:56.359Z,23.60
2018-04-01T02:09:24.820Z,23.50
2018-04-01T02:11:53.063Z,23.50
2018-04-01T02:14:21.895Z,23.50
2018-04-01T02:16:50.329Z,23.50
2018-04-01T02:19:18.901Z,23.50
2018-04-01T02:21:47.263Z,23.50
2018-04-01T02:24:16.463Z,23.50
2018-04-01T02:26:45.155Z,23.50
2018-04-01T02:29:13.399Z,23.50
2018-04-01T02:31:42.261Z,23.50
2018-04-01T02:36:46.137Z,23.50
2018-04-01T02:39:14.385Z,23.50
2018-04-01T02:41:43.335Z,23.50
2018-04-01T02:44:12.026Z,23.50
2018-04-01T02:46:42.088Z,23.50
2018-04-01T02:49:11.234Z,23.50
2018-04-01T02:51:39.476Z,23.50
2018-04-01T02:54:08.679Z,23.50
2018-04-01T02:56:36.917Z,23.50
2018-04-01T02:59:06.050Z,23.50
2018-04-01T03:01:34.297Z,23.50
2018-04-01T03:04:02.545Z,23.50
2018-04-01T03:06:31.568Z,23.50
2018-04-01T03:08:59.908Z,23.50
2018-04-01T03:11:28.163Z,23.50
2018-04-01T03:13:56.476Z,23.50
2018-04-01T03:16:25.496Z,23.40
2018-04-01T03:18:53.799Z,23.40
2018-04-01T03:21:22.047Z,23.40
2018-04-01T03:23:50.354Z,23.40
2018-04-01T03:26:18.608Z,23.40
2018-04-01T03:28:46.932Z,23.40
2018-04-01T03:31:15.187Z,23.40
2018-04-01T03:33:43.472Z,23.40
2018-04-01T03:36:11.703Z,23.40
2018-04-01T03:38:39.964Z,23.40
2018-04-01T03:41:08.222Z,23.40
2018-04-01T03:43:37.228Z,23.40
2018-04-01T03:46:06.288Z,23.40
2018-04-01T03:48:34.990Z,23.40
2018-04-01T03:51:03.544Z,23.40
2018-04-01T03:53:31.784Z,23.40
2018-04-01T03:56:00.028Z,23.40
2018-04-01T03:58:28.279Z,23.40
2018-04-01T04:00:57.131Z,23.40
2018-04-01T04:03:25.564Z,23.40
2018-04-01T04:05:53.989Z,23.40
2018-04-01T04:08:22.392Z,23.40
2018-04-01T04:10:50.623Z,23.40
2018-04-01T04:13:19.632Z,23.40
2018-04-01T04:15:47.891Z,23.40
2018-04-01T04:18:16.904Z,23.40
2018-04-01T04:20:45.163Z,23.40
2018-04-01T04:23:14.204Z,23.40
2018-04-01T04:25:42.448Z,23.40
2018-04-01T04:28:10.693Z,23.40
2018-04-01T04:30:38.936Z,23.40
2018-04-01T04:33:07.172Z,23.40
2018-04-01T04:35:35.400Z,23.40
2018-04-01T04:38:03.659Z,23.40
2018-04-01T04:40:31.983Z,23.40
2018-04-01T04:43:01.036Z,23.40
2018-04-01T04:45:29.272Z,23.40
2018-04-01T04:47:58.138Z,23.40
2018-04-01T04:50:26.772Z,23.40
2018-04-01T04:52:56.376Z,23.40
2018-04-01T04:55:24.775Z,23.40
2018-04-01T04:57:53.912Z,23.40
2018-04-01T05:00:23.105Z,23.40
2018-04-01T05:02:51.343Z,23.40
2018-04-01T05:05:19.685Z,23.40
2018-04-01T05:07:48.039Z,23.40
2018-04-01T05:10:17.087Z,23.40
2018-04-01T05:12:45.400Z,23.40
2018-04-01T05:15:13.640Z,23.40
2018-04-01T05:17:41.899Z,23.40
2018-04-01T05:20:11.139Z,23.40
2018-04-01T05:22:39.567Z,23.40
2018-04-01T05:25:07.887Z,23.40
2018-04-01T05:27:36.147Z,23.40
2018-04-01T05:30:04.392Z,23.40
2018-04-01T05:32:32.651Z,23.40
2018-04-01T05:35:02.183Z,23.40
2018-04-01T05:37:31.368Z,23.40
2018-04-01T05:40:00.372Z,23.40
2018-04-01T05:42:28.623Z,23.40
2018-04-01T05:44:57.655Z,23.40
2018-04-01T05:47:25.911Z,23.40
2018-04-01T05:49:54.156Z,23.40
2018-04-01T05:52:22.400Z,23.40
2018-04-01T05:54:51.019Z,23.40
2018-04-01T05:57:19.259Z,23.40
2018-04-01T05:59:47.512Z,23.40
2018-04-01T06:02:15.760Z,23.40
2018-04-01T06:04:44.779Z,23.40
2018-04-01T06:07:13.060Z,23.40
2018-04-01T06:09:41.316Z,23.40
2018-04-01T06:12:10.365Z,23.40
2018-04-01T06:14:38.624Z,23.40
2018-04-01T06:17:06.876Z,23.40
2018-04-01T06:19:35.832Z,23.40
2018-04-01T06:22:04.103Z,23.50
2018-04-01T06:24:32.348Z,23.50
2018-04-01T06:27:00.644Z,23.50
2018-04-01T06:29:28.907Z,23.50
2018-04-01T06:31:57.148Z,23.50
2018-04-01T06:34:25.397Z,23.50
2018-04-01T06:36:54.428Z,23.50
2018-04-01T06:39:22.663Z,23.50
2018-04-01T06:41:50.936Z,23.50
2018-04-01T06:44:19.209Z,23.50
2018-04-01T06:46:47.451Z,23.50
2018-04-01T06:49:15.680Z,23.50
2018-04-01T06:51:44.707Z,23.50
2018-04-01T06:54:12.944Z,23.50
2018-04-01T06:56:42.260Z,23.50
2018-04-01T06:59:11.272Z,23.50
2018-04-01T07:01:39.551Z,23.50
2018-04-01T07:04:07.816Z,23.50
2018-04-01T07:06:36.148Z,23.50
2018-04-01T07:09:04.471Z,23.50
2018-04-01T07:11:32.732Z,23.50
2018-04-01T07:14:01.891Z,23.50
2018-04-01T07:16:30.148Z,23.50
2018-04-01T07:18:58.368Z,23.50
2018-04-01T07:21:26.660Z,23.50
2018-04-01T07:23:55.660Z,23.50
2018-04-01T07:26:23.896Z,23.50
2018-04-01T07:28:52.164Z,23.50
2018-04-01T07:31:20.412Z,23.50
2018-04-01T07:33:48.699Z,23.50
2018-04-01T07:36:16.977Z,23.50
2018-04-01T07:38:45.988Z,23.50
2018-04-01T07:41:14.233Z,23.50
2018-04-01T07:43:42.523Z,23.50
2018-04-01T07:46:10.824Z,23.50
2018-04-01T07:48:39.088Z,23.50
2018-04-01T07:51:07.397Z,23.50
2018-04-01T07:53:36.421Z,23.50
2018-04-01T07:56:04.711Z,23.50
2018-04-01T07:58:33.375Z,23.50
2018-04-01T08:01:01.652Z,23.50
2018-04-01T08:03:29.903Z,23.50
2018-04-01T08:05:58.280Z,23.50
2018-04-01T08:08:26.516Z,23.50
2018-04-01T08:10:54.755Z,23.50
2018-04-01T08:13:23.807Z,23.50
2018-04-01T08:15:52.077Z,23.50
2018-04-01T08:18:20.311Z,23.50
2018-04-01T08:20:48.572Z,23.50
2018-04-01T08:23:17.635Z,23.60
2018-04-01T08:25:45.879Z,23.50
2018-04-01T08:28:14.143Z,23.60
2018-04-01T08:30:43.235Z,23.60
2018-04-01T08:33:11.503Z,23.60
2018-04-01T08:35:39.759Z,23.60
2018-04-01T08:38:08.844Z,23.60
2018-04-01T08:40:37.319Z,23.60
2018-04-01T08:43:06.201Z,23.60
2018-04-01T08:45:34.846Z,23.60
2018-04-01T08:48:03.108Z,23.60
2018-04-01T08:50:31.761Z,23.60
2018-04-01T08:53:00.908Z,23.60
2018-04-01T08:55:29.132Z,23.60
2018-04-01T08:57:57.618Z,23.60
2018-04-01T09:00:26.161Z,23.60
2018-04-01T09:02:54.760Z,23.60
2018-04-01T09:05:23.058Z,23.60
2018-04-01T09:07:51.689Z,23.60
2018-04-01T09:10:20.056Z,23.60
2018-04-01T09:12:48.383Z,23.60
2018-04-01T09:15:16.640Z,23.60
2018-04-01T09:17:44.903Z,23.60
2018-04-01T09:20:13.167Z,23.60
2018-04-01T09:22:41.481Z,23.60
2018-04-01T09:25:09.748Z,23.60
2018-04-01T09:27:38.884Z,23.60
2018-04-01T09:30:07.129Z,23.60
2018-04-01T09:32:36.216Z,23.60
2018-04-01T09:35:04.498Z,23.60
2018-04-01T09:37:33.503Z,23.60
2018-04-01T09:40:02.164Z,23.60
2018-04-01T09:42:30.440Z,23.60
2018-04-01T09:44:58.700Z,23.60
2018-04-01T09:47:27.234Z,23.60
2018-04-01T09:49:55.540Z,23.60
2018-04-01T09:52:24.557Z,23.70
2018-04-01T09:54:53.778Z,23.70
2018-04-01T09:57:22.396Z,23.60
2018-04-01T09:59:50.635Z,23.70
2018-04-01T10:02:21.196Z,23.70
2018-04-01T10:04:52.568Z,23.70
2018-04-01T10:07:23.732Z,23.70
2018-04-01T10:09:54.152Z,23.60
2018-04-01T10:12:25.248Z,23.70
2018-04-01T10:14:55.660Z,23.70
2018-04-01T10:17:25.956Z,23.70
2018-04-01T10:19:56.812Z,23.70
2018-04-01T10:22:27.507Z,23.70
2018-04-01T10:24:58.668Z,23.70
2018-04-01T10:27:29.020Z,23.60
2018-04-01T10:30:00.205Z,23.60
2018-04-01T10:32:30.488Z,23.60
2018-04-01T10:35:00.779Z,23.70
2018-04-01T10:37:31.056Z,23.60
2018-04-01T10:40:02.068Z,23.60
2018-04-01T10:42:32.399Z,23.70
2018-04-01T10:45:02.919Z,23.70
2018-04-01T10:47:33.207Z,23.70
2018-04-01T10:50:05.207Z,23.70
2018-04-01T10:52:36.135Z,23.70
2018-04-01T10:55:04.377Z,23.70
2018-04-01T10:57:33.061Z,23.70
2018-04-01T11:02:37.343Z,23.70
2018-04-01T11:05:05.625Z,23.70
2018-04-01T11:07:33.907Z,23.70
2018-04-01T11:10:02.235Z,23.70
2018-04-01T11:12:31.232Z,23.70
2018-04-01T11:15:00.236Z,23.70
2018-04-01T11:17:29.276Z,23.60
2018-04-01T11:19:57.503Z,23.60
2018-04-01T11:22:26.532Z,23.60
2018-04-01T11:24:54.808Z,23.60
2018-04-01T11:27:23.083Z,23.60
2018-04-01T11:29:51.347Z,23.60
2018-04-01T11:32:19.699Z,23.60
2018-04-01T11:34:48.731Z,23.60
2018-04-01T11:37:17.056Z,23.60
2018-04-01T11:39:45.328Z,23.60
2018-04-01T11:42:13.599Z,23.60
2018-04-01T11:44:41.836Z,23.60
2018-04-01T11:47:10.099Z,23.60
2018-04-01T11:49:38.646Z,23.60
2018-04-01T11:52:06.887Z,23.60
2018-04-01T11:54:35.836Z,23.60
2018-04-01T11:57:04.707Z,23.60
2018-04-01T11:59:33.336Z,23.60
2018-04-01T12:02:01.879Z,23.60
2018-04-01T12:04:30.414Z,23.60
2018-04-01T12:06:58.924Z,23.50
2018-04-01T12:09:27.980Z,23.50
2018-04-01T12:11:56.272Z,23.60
2018-04-01T12:14:25.372Z,23.60
2018-04-01T12:16:53.627Z,23.60
2018-04-01T12:19:22.268Z,23.60
2018-04-01T12:21:51.567Z,23.50
2018-04-01T12:24:21.232Z,23.50
2018-04-01T12:26:49.912Z,23.50
2018-04-01T12:29:18.179Z,23.50
2018-04-01T12:31:46.420Z,23.50
2018-04-01T12:34:14.688Z,23.50
2018-04-01T12:36:43.516Z,23.50
2018-04-01T12:39:12.339Z,23.50
2018-04-01T12:41:40.652Z,23.50
2018-04-01T12:44:09.208Z,23.50
2018-04-01T12:46:38.407Z,23.50
2018-04-01T12:49:06.647Z,23.50
2018-04-01T12:51:35.188Z,23.50
2018-04-01T12:54:04.487Z,23.50
2018-04-01T12:56:34.647Z,23.60
2018-04-01T12:59:02.904Z,23.50
2018-04-01T13:01:31.923Z,23.60
2018-04-01T13:04:01.227Z,23.50
2018-04-01T13:06:30.352Z,23.60
2018-04-01T13:08:58.612Z,23.50
2018-04-01T13:11:26.933Z,23.60
2018-04-01T13:13:56.008Z,23.50
2018-04-01T13:16:24.335Z,23.60
2018-04-01T13:18:53.401Z,23.50
2018-04-01T13:21:21.704Z,23.50
2018-04-01T13:23:51.536Z,23.50
2018-04-01T13:26:20.328Z,23.50
2018-04-01T13:28:48.575Z,23.50
2018-04-01T13:31:18.005Z,23.50
2018-04-01T13:33:47.136Z,23.50
2018-04-01T13:36:15.432Z,23.50
2018-04-01T13:38:44.323Z,23.50
2018-04-01T13:41:12.615Z,23.50
2018-04-01T13:43:41.647Z,23.50
2018-04-01T13:46:10.527Z,23.50
2018-04-01T13:48:39.478Z,23.50
2018-04-01T13:51:07.712Z,23.50
2018-04-01T13:53:36.195Z,23.50
2018-04-01T13:56:04.485Z,23.50
2018-04-01T13:58:32.728Z,23.50
2018-04-01T14:01:01.374Z,23.50
2018-04-01T14:03:30.195Z,23.60
2018-04-01T14:05:59.053Z,23.60
2018-04-01T14:08:35.147Z,23.60
2018-04-01T14:11:03.388Z,23.60
2018-04-01T14:13:31.665Z,23.60
2018-04-01T14:16:00.352Z,23.60
2018-04-01T14:18:29.427Z,23.60
2018-04-01T14:20:58.273Z,23.70
2018-04-01T14:23:26.740Z,23.70
2018-04-01T14:25:55.891Z,23.80
2018-04-01T14:28:24.140Z,23.80
2018-04-01T14:30:52.400Z,23.90
2018-04-01T14:33:20.680Z,23.90
2018-04-01T14:35:48.975Z,23.90
2018-04-01T14:38:17.236Z,23.90
2018-04-01T14:40:45.473Z,23.90
2018-04-01T14:43:13.757Z,23.90
2018-04-01T14:45:42.833Z,23.90
2018-04-01T14:48:11.121Z,23.90
2018-04-01T14:50:39.387Z,23.90
2018-04-01T14:53:07.784Z,23.90
2018-04-01T14:55:36.024Z,23.90
2018-04-01T14:58:04.284Z,23.90
2018-04-01T15:00:32.760Z,24.00
2018-04-01T15:03:01.028Z,23.90
2018-04-01T15:05:29.260Z,24.00
2018-04-01T15:07:57.568Z,24.00
2018-04-01T15:10:26.209Z,24.00
2018-04-01T15:12:54.456Z,24.00
2018-04-01T15:15:22.796Z,24.00
2018-04-01T15:17:51.791Z,24.00
2018-04-01T15:20:20.817Z,24.10
2018-04-01T15:22:49.092Z,24.00
2018-04-01T15:25:17.335Z,24.00
2018-04-01T15:27:46.406Z,24.10
2018-04-01T15:30:14.652Z,24.00
2018-04-01T15:32:42.896Z,24.00
2018-04-01T15:35:11.164Z,24.10
2018-04-01T15:37:40.201Z,24.00
2018-04-01T15:40:08.464Z,24.00
2018-04-01T15:42:36.696Z,24.00
2018-04-01T15:45:05.060Z,24.00
2018-04-01T15:47:34.166Z,24.00
2018-04-01T15:50:02.416Z,24.00
2018-04-01T15:52:30.711Z,24.00
2018-04-01T15:54:58.984Z,24.00
2018-04-01T15:57:27.248Z,24.10
2018-04-01T15:59:55.596Z,24.10
2018-04-01T16:02:23.843Z,24.00
2018-04-01T16:04:52.839Z,24.10
2018-04-01T16:07:21.916Z,24.10
2018-04-01T16:09:50.151Z,24.10
2018-04-01T16:12:18.836Z,24.10
2018-04-01T16:14:47.151Z,24.10
2018-04-01T16:17:15.452Z,24.10
2018-04-01T16:19:44.482Z,24.10
2018-04-01T16:22:12.744Z,24.10
2018-04-01T16:24:40.975Z,24.10
2018-04-01T16:29:48.620Z,24.20
2018-04-01T16:32:16.847Z,24.20
2018-04-01T16:34:45.092Z,24.10
2018-04-01T16:37:13.371Z,24.20
2018-04-01T16:39:41.656Z,24.20
2018-04-01T16:42:09.912Z,24.20
2018-04-01T16:44:38.211Z,24.20
2018-04-01T16:47:06.515Z,24.20
2018-04-01T16:49:34.771Z,24.20
2018-04-01T16:52:03.026Z,24.20
2018-04-01T16:54:31.260Z,24.30
2018-04-01T16:56:59.564Z,24.30
2018-04-01T16:59:27.863Z,24.20
2018-04-01T17:01:56.426Z,24.30
2018-04-01T17:04:24.691Z,24.30
2018-04-01T17:06:53.739Z,24.30
2018-04-01T17:09:22.039Z,24.20
2018-04-01T17:11:50.340Z,24.30
2018-04-01T17:14:19.747Z,24.30
2018-04-01T17:16:48.752Z,24.30
2018-04-01T17:19:17.058Z,24.20
2018-04-01T17:21:45.317Z,24.30
2018-04-01T17:24:13.567Z,24.30
2018-04-01T17:26:42.587Z,24.30
2018-04-01T17:29:10.868Z,24.30
2018-04-01T17:31:39.688Z,24.30
2018-04-01T17:34:07.924Z,24.30
2018-04-01T17:36:36.272Z,24.30
2018-04-01T17:39:05.311Z,24.40
2018-04-01T17:41:33.564Z,24.30
2018-04-01T17:44:01.909Z,24.40
2018-04-01T17:46:30.208Z,24.40
2018-04-01T17:48:58.511Z,24.40
2018-04-01T17:51:26.760Z,24.40
2018-04-01T17:53:55.776Z,24.40
2018-04-01T17:56:24.192Z,24.40
2018-04-01T17:58:52.677Z,24.40
2018-04-01T18:01:20.924Z,24.40
2018-04-01T18:03:49.181Z,24.40
2018-04-01T18:06:17.447Z,24.40
2018-04-01T18:08:46.459Z,24.50
2018-04-01T18:11:14.724Z,24.40
2018-04-01T18:13:43.003Z,24.50
2018-04-01T18:16:11.557Z,24.50
2018-04-01T18:18:39.815Z,24.50
2018-04-01T18:21:08.096Z,24.50
2018-04-01T18:23:36.343Z,24.50
2018-04-01T18:26:04.604Z,24.50
2018-04-01T18:28:32.884Z,24.50
2018-04-01T18:31:01.256Z,24.60
2018-04-01T18:33:29.527Z,24.60
2018-04-01T18:35:57.870Z,24.60
2018-04-01T18:38:26.148Z,24.60
2018-04-01T18:40:55.175Z,24.70
2018-04-01T18:43:23.529Z,24.60
2018-04-01T18:45:52.535Z,24.70
2018-04-01T18:48:21.559Z,24.70
2018-04-01T18:50:49.811Z,24.70
2018-04-01T18:53:18.060Z,24.70
2018-04-01T18:55:46.320Z,24.70
2018-04-01T18:58:14.656Z,24.80
2018-04-01T19:00:42.922Z,24.80
2018-04-01T19:03:11.169Z,24.80
2018-04-01T19:05:39.496Z,24.80
2018-04-01T19:08:07.760Z,24.90
2018-04-01T19:10:36.012Z,24.90
2018-04-01T19:13:05.048Z,25.00
2018-04-01T19:15:33.311Z,25.00
2018-04-01T19:18:04.146Z,25.00
2018-04-01T19:20:34.483Z,25.00
2018-04-01T19:23:04.763Z,25.00
2018-04-01T19:25:35.896Z,25.00
2018-04-01T19:28:06.280Z,25.00
2018-04-01T19:30:36.579Z,25.00
2018-04-01T19:33:06.956Z,25.00
2018-04-01T19:35:37.290Z,25.00
2018-04-01T19:38:07.716Z,25.00
2018-04-01T19:40:38.072Z,25.00
2018-04-01T19:43:09.119Z,25.00
2018-04-01T19:45:40.300Z,25.10
2018-04-01T19:48:10.576Z,25.00
2018-04-01T19:50:41.600Z,25.10
2018-04-01T19:53:12.008Z,25.10
2018-04-01T19:55:42.495Z,25.10
2018-04-01T19:58:13.795Z,25.20
2018-04-01T20:00:44.276Z,25.20
2018-04-01T20:03:15.400Z,25.20
2018-04-01T20:05:46.936Z,25.20
2018-04-01T20:08:17.236Z,25.20
2018-04-01T20:10:47.613Z,25.20
2018-04-01T20:13:17.903Z,25.20
2018-04-01T20:15:48.396Z,25.20
2018-04-01T20:18:19.064Z,25.20
2018-04-01T20:20:49.374Z,25.20
2018-04-01T20:23:19.701Z,25.20
2018-04-01T20:25:50.132Z,25.20
2018-04-01T20:28:21.575Z,25.20
2018-04-01T20:30:51.896Z,25.20
2018-04-01T20:33:22.224Z,25.20
2018-04-01T20:35:52.540Z,25.20
2018-04-01T20:38:22.923Z,25.20
2018-04-01T20:40:53.259Z,25.20
2018-04-01T20:43:23.559Z,25.20
2018-04-01T20:45:54.644Z,25.20
2018-04-01T20:48:25.044Z,25.20
2018-04-01T20:50:55.400Z,25.20
2018-04-01T20:53:26.820Z,25.20
2018-04-01T20:55:57.899Z,25.20
2018-04-01T20:58:28.835Z,25.10
2018-04-01T21:00:59.636Z,25.10
2018-04-01T21:03:30.463Z,25.10
2018-04-01T21:06:01.724Z,25.10
2018-04-01T21:08:32.835Z,25.10
2018-04-01T21:11:03.767Z,25.10
2018-04-01T21:13:34.136Z,25.10
2018-04-01T21:16:04.540Z,25.10
2018-04-01T21:18:37.031Z,25.10
2018-04-01T21:21:07.700Z,25.10
2018-04-01T21:23:38.407Z,25.10
2018-04-01T21:26:09.761Z,25.10
2018-04-01T21:28:40.896Z,25.10
2018-04-01T21:31:12.000Z,25.10
2018-04-01T21:33:43.268Z,25.10
2018-04-01T21:36:14.360Z,25.10
2018-04-01T21:38:45.328Z,25.00
2018-04-01T21:41:15.804Z,25.10
2018-04-01T21:43:46.600Z,25.00
2018-04-01T21:46:17.907Z,25.00
2018-04-01T21:48:49.027Z,25.00
2018-04-01T21:51:20.204Z,25.00
2018-04-01T21:53:50.628Z,25.00
2018-04-01T21:56:21.324Z,25.00
2018-04-01T21:58:52.703Z,25.00
2018-04-01T22:01:23.751Z,25.00
2018-04-01T22:03:54.740Z,25.00
2018-04-01T22:06:26.173Z,24.90
2018-04-01T22:08:57.923Z,25.00
2018-04-01T22:11:28.892Z,24.90
2018-04-01T22:14:00.839Z,25.00
2018-04-01T22:16:32.431Z,25.00
2018-04-01T22:19:03.704Z,24.90
2018-04-01T22:21:35.011Z,24.90
2018-04-01T22:24:06.092Z,25.00
2018-04-01T22:26:37.443Z,24.90
2018-04-01T22:29:08.847Z,24.90
2018-04-01T22:31:40.507Z,24.90
2018-04-01T22:34:10.955Z,24.90
2018-04-01T22:36:41.508Z,24.90
2018-04-01T22:39:12.824Z,24.90
2018-04-01T22:41:44.338Z,24.90
2018-04-01T22:44:15.214Z,24.90
2018-04-01T22:46:46.547Z,24.90
2018-04-01T22:49:17.823Z,24.90
2018-04-01T22:51:48.909Z,24.90
2018-04-01T22:54:19.211Z,24.90
2018-04-01T22:56:49.831Z,24.90
2018-04-01T22:59:21.046Z,24.90
2018-04-01T23:01:52.213Z,24.90
2018-04-01T23:04:23.708Z,24.90
2018-04-01T23:06:55.076Z,24.90
2018-04-01T23:09:26.647Z,24.90
2018-04-01T23:11:57.719Z,24.80
2018-04-01T23:14:28.140Z,24.90
2018-04-01T23:17:00.116Z,24.90
2018-04-01T23:19:31.212Z,24.80
2018-04-01T23:22:02.774Z,24.80
2018-04-01T23:24:33.743Z,24.80
2018-04-01T23:27:04.553Z,24.80
2018-04-01T23:29:35.662Z,24.80
2018-04-01T23:32:07.563Z,24.80
2018-04-01T23:34:38.748Z,24.80
2018-04-01T23:37:09.184Z,24.80
2018-04-01T23:39:39.684Z,24.80
2018-04-01T23:42:10.324Z,24.80
2018-04-01T23:44:41.741Z,24.80
2018-04-01T23:47:12.851Z,24.80
2018-04-01T23:49:43.939Z,24.80
2018-04-01T23:52:14.332Z,24.80
2018-04-01T23:54:45.562Z,24.80
2018-04-01T23:57:15.916Z,24.80
2018-04-01T23:59:46.518Z,24.80
